Dobrodošli na spletni strani vremenske postaje Senovo. Vse informacije so informativnega značaja, saj vremenska postaja ni del državne mreže meteoroloških postaj. AKTUALNIH OBVESTIL NI.


Sneg/Led Od: 23-02-2018 00:00 Do: 23:59 Opozorilo za: Sneg/Led Stopnja: Rumena info button

Pogled proti Armezu več informacij Pogled proti Armezu


Lisca več informacij Lisca


Radar strel več informacij blitzortung!


opozorilo za sneg/led več informacij rain snow radar


Obiščite še:

Template documentation
and downloads

And another site



Weather Underground, zgodovina - Tekstovno

Dnevni povzetek za December 26, 2017 Enote:  Metrično    Angleško   Obe
« Predhodni Dan
Naslednji Dan »
Dnevni Tedenski Mesečni Letni Po meri
  Višja: Nižja: Povprečje:
Temperatura: -17.8 °C -16.1 °C -13.3 °C
Točka rosišča: -17.8 °C -18.1 °C -15.4 °C
Vlažnost: Humidity % 63 % 78 %
Hitrost vetra: 0 km/h 0 km/h 6.4 km/h
Sunki vetra: 0 km/h - -
Veter:- - WSW
Zračni tlak: 0 hPa 34130.9 hPa -
Padavine: 0 mm    
Historical Graphs
 
 
Tabelarni podarki za December 26, 2017
Čas Temperatura Točka rosišča Zračni tlak Veter Hitrost vetra Sunki vetra Vlažnost Intenziteta padavin (urna)
-17.8 °C -17.8 °C 0 hPa Calm     Humidity % 0 mm
00:00 -14.8 °C -15.4 °C 34428.8 hPa South 5.1 km/h 17.9 km/h 93 % 0 mm
00:04 -14.7 °C -15.2 °C 34428.8 hPa South 6 km/h 17.9 km/h 94 % 0 mm
00:09 -14.6 °C -15.1 °C 34428.8 hPa SSW 7.2 km/h 19.2 km/h 94 % 0 mm
00:10 -14.6 °C -15.1 °C 34428.8 hPa South 7.2 km/h 19.2 km/h 94 % 0 mm
00:15 -14.4 °C -14.9 °C 34428.8 hPa SSW 8 km/h 19.2 km/h 94 % 0 mm
00:17 -14.4 °C -14.9 °C 34428.8 hPa SW 6.9 km/h 16.3 km/h 94 % 0 mm
00:22 -14.2 °C -14.7 °C 34428.8 hPa NNE 6.4 km/h 16.3 km/h 94 % 0 mm
00:23 -14.2 °C -14.7 °C 34428.8 hPa NE 6 km/h 16.3 km/h 94 % 0 mm
00:28 -14.2 °C -14.7 °C 34428.8 hPa SE 4.3 km/h 10.3 km/h 94 % 0 mm
00:29 -14.2 °C -14.7 °C 34428.8 hPa South 4.3 km/h 16.3 km/h 94 % 0 mm
00:31 -14.1 °C -14.6 °C 34428.8 hPa SSW 5.6 km/h 19.2 km/h 94 % 0 mm
00:35 -14.1 °C -14.6 °C 34428.8 hPa SSW 8 km/h 19.2 km/h 94 % 0 mm
00:38 -14.1 °C -14.6 °C 34428.8 hPa SSW 9.3 km/h 19.2 km/h 94 % 0 mm
00:41 -14.1 °C -14.6 °C 34428.8 hPa SSW 8.2 km/h 16.9 km/h 94 % 0 mm
00:46 -14.1 °C -14.6 °C 34405.1 hPa South 7.2 km/h 16.3 km/h 94 % 0 mm
00:49 -14.1 °C -14.6 °C 34405.1 hPa SSW 8.2 km/h 16.3 km/h 94 % 0 mm
00:54 -14 °C -14.5 °C 34405.1 hPa SSW 6.9 km/h 16.3 km/h 94 % 0 mm
00:55 -14 °C -14.5 °C 34405.1 hPa SSW 6.8 km/h 16.3 km/h 94 % 0 mm
00:56 -14 °C -14.5 °C 34405.1 hPa SSW 6.4 km/h 14.5 km/h 94 % 0 mm
01:01 -13.9 °C -14.4 °C 34428.8 hPa SSW 6.3 km/h 14.5 km/h 94 % 0 mm
01:06 -13.9 °C -14.5 °C 34428.8 hPa WSW 8 km/h 19.6 km/h 93 % 0 mm
01:07 -13.9 °C -14.5 °C 34428.8 hPa WSW 8 km/h 19.6 km/h 93 % 0 mm
01:09 -13.8 °C -14.4 °C 34428.8 hPa WSW 8 km/h 19.6 km/h 93 % 0 mm
01:14 -13.8 °C -14.4 °C 34428.8 hPa SW 8.9 km/h 20.3 km/h 93 % 0 mm
01:15 -13.8 °C -14.3 °C 34428.8 hPa SW 9.7 km/h 20.3 km/h 93 % 0 mm
01:18 -13.8 °C -14.3 °C 34428.8 hPa SW 9.8 km/h 20.3 km/h 93 % 0 mm
01:23 -13.7 °C -14.3 °C 34428.8 hPa SW 8.9 km/h 28.5 km/h 93 % 0 mm
01:24 -13.7 °C -14.3 °C 34428.8 hPa WSW 9.8 km/h 28.5 km/h 93 % 0 mm
01:27 -13.7 °C -14.3 °C 34428.8 hPa WSW 9.7 km/h 28.5 km/h 93 % 0 mm
01:33 -13.6 °C -14.3 °C 34428.8 hPa WSW 11.6 km/h 23.8 km/h 92 % 0 mm
01:35 -13.6 °C -14.2 °C 34428.8 hPa WSW 10.3 km/h 23.8 km/h 92 % 0 mm
01:40 -13.5 °C -14.2 °C 34428.8 hPa West 9.7 km/h 19.6 km/h 92 % 0 mm
01:42 -13.5 °C -14.3 °C 34428.8 hPa SW 9.3 km/h 19.6 km/h 91 % 0 mm
01:47 -13.4 °C -14.2 °C 34405.1 hPa SW 11.4 km/h 20.9 km/h 91 % 0 mm
01:49 -13.4 °C -14.2 °C 34405.1 hPa SW 11.9 km/h 20.9 km/h 91 % 0 mm
01:54 -13.3 °C -14.2 °C 34405.1 hPa WSW 12.7 km/h 31.4 km/h 90 % 0 mm
01:59 -13.3 °C -14.3 °C 34428.8 hPa West 10.9 km/h 51 km/h 89 % 0 mm
02:04 -13.2 °C -14.2 °C 34428.8 hPa SW 14 km/h 51 km/h 89 % 0 mm
02:05 -13.2 °C -14.3 °C 34428.8 hPa SW 15.3 km/h 51 km/h 88 % 0 mm
02:10 -13.2 °C -14.3 °C 34428.8 hPa SW 16.3 km/h 31.4 km/h 88 % 0 mm
02:15 -13.2 °C -14.3 °C 34405.1 hPa SW 14.2 km/h 26.7 km/h 87 % 0 mm
02:17 -13.2 °C -14.3 °C 34405.1 hPa SW 14 km/h 31.4 km/h 87 % 0 mm
02:21 -13.2 °C -14.4 °C 34405.1 hPa SW 14 km/h 31.4 km/h 86 % 0 mm
02:23 -13.2 °C -14.4 °C 34405.1 hPa SW 12.9 km/h 31.4 km/h 86 % 0 mm
02:27 -13.1 °C -14.3 °C 34405.1 hPa SW 10.9 km/h 31.4 km/h 86 % 0 mm
02:32 -13.1 °C -14.3 °C 34405.1 hPa WSW 8.5 km/h 16.9 km/h 86 % 0 mm
02:34 -13.1 °C -14.4 °C 34405.1 hPa West 8.9 km/h 22 km/h 85 % 0 mm
02:39 -13.1 °C -14.4 °C 34405.1 hPa WSW 11.4 km/h 31.4 km/h 85 % 0 mm
02:40 -13.1 °C -14.4 °C 34405.1 hPa WSW 11.9 km/h 31.4 km/h 85 % 0 mm
02:45 -13 °C -14.4 °C 34405.1 hPa SW 13.7 km/h 31.4 km/h 84 % 0 mm
02:50 -13 °C -14.4 °C 34405.1 hPa SW 14 km/h 26.7 km/h 84 % 0 mm
02:51 -13 °C -14.4 °C 34405.1 hPa SW 14 km/h 26.7 km/h 84 % 0 mm
02:54 -13 °C -14.5 °C 34405.1 hPa WSW 12.7 km/h 26.7 km/h 83 % 0 mm
02:58 -13 °C -14.5 °C 34405.1 hPa WSW 12.2 km/h 24.8 km/h 83 % 0 mm
03:01 -12.9 °C -14.4 °C 34405.1 hPa WSW 12.9 km/h 26.2 km/h 83 % 0 mm
03:06 -13 °C -14.6 °C 34405.1 hPa SW 13.7 km/h 26.7 km/h 82 % 0 mm
03:07 -12.9 °C -14.6 °C 34405.1 hPa SW 13.7 km/h 26.7 km/h 82 % 0 mm
03:12 -12.9 °C -14.6 °C 34405.1 hPa SW 10.9 km/h 26.7 km/h 82 % 0 mm
03:14 -12.9 °C -14.7 °C 34371.3 hPa SW 10.6 km/h 24.8 km/h 81 % 0 mm
03:19 -12.9 °C -14.7 °C 34371.3 hPa WSW 10.9 km/h 19.6 km/h 81 % 0 mm
03:20 -12.9 °C -14.7 °C 34371.3 hPa WSW 10.6 km/h 19.6 km/h 81 % 0 mm
03:25 -12.9 °C -14.7 °C 34371.3 hPa WSW 9.7 km/h 16.9 km/h 80 % 0 mm
03:26 -12.9 °C -14.7 °C 34371.3 hPa SW 9.7 km/h 16.3 km/h 80 % 0 mm
03:30 -12.9 °C -14.8 °C 34371.3 hPa SW 9.8 km/h 16.3 km/h 80 % 0 mm
03:33 -12.9 °C -14.8 °C 34371.3 hPa SW 9 km/h 16.3 km/h 80 % 0 mm
03:36 -12.9 °C -14.8 °C 34371.3 hPa SW 9 km/h 20.9 km/h 79 % 0 mm
03:39 -12.9 °C -14.8 °C 34371.3 hPa WSW 9.7 km/h 20.9 km/h 79 % 0 mm
03:44 -12.9 °C -14.8 °C 34371.3 hPa WSW 11.4 km/h 29 km/h 79 % 0 mm
03:49 -12.9 °C -14.9 °C 34371.3 hPa SW 12.2 km/h 29 km/h 78 % 0 mm
03:53 -12.9 °C -14.9 °C 34371.3 hPa SW 12.7 km/h 28.5 km/h 78 % 0 mm
03:57 -12.8 °C -14.8 °C 34371.3 hPa SW 12.4 km/h 26.2 km/h 78 % 0 mm
03:58 -12.8 °C -14.8 °C 34371.3 hPa SW 12.7 km/h 26.2 km/h 78 % 0 mm
04:03 -12.8 °C -14.9 °C 34371.3 hPa SW 12.9 km/h 25.4 km/h 77 % 0 mm
04:08 -12.8 °C -14.9 °C 34371.3 hPa WSW 12.4 km/h 25.4 km/h 77 % 0 mm
04:13 -12.8 °C -15 °C 34371.3 hPa WSW 11.6 km/h 25.4 km/h 76 % 0 mm
04:18 -12.8 °C -15 °C 34337.4 hPa WSW 13.5 km/h 28.5 km/h 76 % 0 mm
04:21 -12.8 °C -15 °C 34337.4 hPa WSW 13.2 km/h 28.5 km/h 76 % 0 mm
04:26 -12.8 °C -15 °C 34337.4 hPa SW 12.2 km/h 28.5 km/h 76 % 0 mm
04:28 -12.8 °C -15.1 °C 34405.1 hPa SW 9.8 km/h 19.2 km/h 75 % 0 mm
04:33 -12.7 °C -15.1 °C 34405.1 hPa WSW 9.7 km/h 20.9 km/h 75 % 0 mm
04:34 -12.7 °C -15.1 °C 34405.1 hPa WSW 9.8 km/h 20.9 km/h 75 % 0 mm
04:39 -12.7 °C -15.1 °C 34405.1 hPa WSW 9.8 km/h 20.9 km/h 75 % 0 mm
04:41 -12.8 °C -15.1 °C 34405.1 hPa SW 11.4 km/h 34.1 km/h 75 % 0 mm
04:46 -12.8 °C -15.2 °C 34371.3 hPa SW 10.1 km/h 34.1 km/h 75 % 0 mm
04:48 -12.8 °C -15.2 °C 34371.3 hPa SW 11.1 km/h 34.1 km/h 75 % 0 mm
04:49 -12.8 °C -15.2 °C 34371.3 hPa SW 11.4 km/h 34.1 km/h 75 % 0 mm
04:53 -12.8 °C -15.3 °C 34371.3 hPa SW 11.1 km/h 29 km/h 74 % 0 mm
04:56 -12.9 °C -15.3 °C 34371.3 hPa WSW 11.9 km/h 29 km/h 74 % 0 mm
05:02 -12.9 °C -15.4 °C 34371.3 hPa SW 9.7 km/h 19.2 km/h 74 % 0 mm
05:05 -13 °C -15.4 °C 34371.3 hPa SW 7.6 km/h 15.6 km/h 74 % 0 mm
05:10 -13.1 °C -15.5 °C 34371.3 hPa SW 6.9 km/h 14 km/h 74 % 0 mm
05:11 -13.1 °C -15.5 °C 34371.3 hPa SW 6.8 km/h 14 km/h 74 % 0 mm
05:12 -13.1 °C -15.5 °C 34371.3 hPa SW 6.8 km/h 14 km/h 74 % 0 mm
05:17 -13.1 °C -15.7 °C 34371.3 hPa SW 7.6 km/h 14 km/h 73 % 0 mm
05:18 -13.2 °C -15.7 °C 34371.3 hPa SW 7.6 km/h 14 km/h 73 % 0 mm
05:23 -13.2 °C -15.7 °C 34371.3 hPa SW 6.8 km/h 12.7 km/h 73 % 0 mm
05:24 -13.2 °C -15.7 °C 34371.3 hPa SW 6.9 km/h 12.7 km/h 73 % 0 mm
05:29 -13.2 °C -15.7 °C 34371.3 hPa SW 7.7 km/h 12.7 km/h 73 % 0 mm
05:32 -13.2 °C -15.7 °C 34371.3 hPa WSW 6.9 km/h 12.7 km/h 73 % 0 mm
05:36 -13.2 °C -15.7 °C 34371.3 hPa WSW 7.6 km/h 20.9 km/h 73 % 0 mm
05:37 -13.2 °C -15.7 °C 34371.3 hPa SW 8.9 km/h 22 km/h 73 % 0 mm
05:42 -13.2 °C -15.7 °C 34371.3 hPa SW 10.6 km/h 22 km/h 73 % 0 mm
05:48 -13.3 °C -15.8 °C 34337.4 hPa WSW 8.2 km/h 19.2 km/h 73 % 0 mm
05:51 -13.3 °C -15.9 °C 34337.4 hPa WSW 6.8 km/h 19.2 km/h 73 % 0 mm
05:53 -13.3 °C -15.9 °C 34337.4 hPa WSW 6.8 km/h 12.7 km/h 73 % 0 mm
05:58 -13.4 °C -15.8 °C 34337.4 hPa SW 7.2 km/h 16.3 km/h 74 % 0 mm
05:59 -13.4 °C -15.8 °C 34337.4 hPa SW 6.9 km/h 16.3 km/h 74 % 0 mm
06:04 -13.4 °C -15.9 °C 34337.4 hPa SSW 7.2 km/h 16.3 km/h 74 % 0 mm
06:05 -13.4 °C -15.9 °C 34337.4 hPa SSW 6.9 km/h 16.3 km/h 74 % 0 mm
06:10 -13.6 °C -16 °C 34337.4 hPa SSW 4.7 km/h 14.5 km/h 74 % 0 mm
06:13 -13.7 °C -16.1 °C 34337.4 hPa SSW 4.3 km/h 9.8 km/h 74 % 0 mm
06:18 -13.7 °C -16.2 °C 34337.4 hPa SSW 6.8 km/h 14.5 km/h 74 % 0 mm
06:19 -13.7 °C -16.2 °C 34337.4 hPa SSW 6 km/h 14.5 km/h 74 % 0 mm
06:24 -13.7 °C -16.1 °C 34337.4 hPa SSW 6 km/h 14.5 km/h 74 % 0 mm
06:26 -13.7 °C -16.1 °C 34337.4 hPa SSW 5 km/h 11.6 km/h 74 % 0 mm
06:30 -13.7 °C -16.2 °C 34303.6 hPa SSW 4.7 km/h 10.3 km/h 74 % 0 mm
06:33 -13.8 °C -16.2 °C 34303.6 hPa SSW 3.4 km/h 9.8 km/h 74 % 0 mm
06:38 -14.2 °C -16.6 °C 34303.6 hPa WSW 3.1 km/h 9.8 km/h 74 % 0 mm
06:43 -14.4 °C -16.8 °C 34303.6 hPa West 2.6 km/h 9.8 km/h 74 % 0 mm
06:45 -14.6 °C -16.8 °C 34303.6 hPa WNW 2.9 km/h 8.9 km/h 75 % 0 mm
06:50 -14.8 °C -17.2 °C 34303.6 hPa WNW 5.5 km/h 14.5 km/h 74 % 0 mm
06:51 -14.8 °C -17.2 °C 34303.6 hPa WNW 6 km/h 14.5 km/h 74 % 0 mm
06:52 -14.8 °C -17.2 °C 34303.6 hPa WNW 6 km/h 14.5 km/h 74 % 0 mm
06:57 -15 °C -17.4 °C 34303.6 hPa WNW 3.1 km/h 8 km/h 74 % 0 mm
06:58 -15.1 °C -17.3 °C 34269.7 hPa WNW 2.6 km/h 8 km/h 75 % 0 mm
07:03 -15.2 °C -17.4 °C 34269.7 hPa NNW 1 km/h 9.3 km/h 75 % 0 mm
07:08 -15.3 °C -17.6 °C 34269.7 hPa NW 2.6 km/h 9.3 km/h 75 % 0 mm
07:09 -15.3 °C -17.6 °C 34269.7 hPa NW 2.6 km/h 9.3 km/h 75 % 0 mm
07:14 -15.5 °C -17.7 °C 34269.7 hPa NW 1.3 km/h 6.9 km/h 75 % 0 mm
07:15 -15.5 °C -17.7 °C 34269.7 hPa NW 1 km/h 6.4 km/h 75 % 0 mm
07:19 -15.7 °C -17.8 °C 34269.7 hPa NW 0.3 km/h 8.9 km/h 76 % 0 mm
07:21 -15.7 °C -17.8 °C 34269.7 hPa NNW 0.8 km/h 8.9 km/h 76 % 0 mm
07:26 -15.7 °C -17.9 °C 34269.7 hPa NW 2.3 km/h 9.8 km/h 76 % 0 mm
07:29 -15.8 °C -17.9 °C 34269.7 hPa NW 2.6 km/h 9.8 km/h 76 % 0 mm
07:31 -15.8 °C -17.9 °C 34269.7 hPa NW 2.1 km/h 9.8 km/h 76 % 0 mm
07:35 -15.9 °C -18.1 °C 34269.7 hPa NW 2.3 km/h 8 km/h 76 % 0 mm
07:36 -15.9 °C -17.9 °C 34269.7 hPa NW 1.8 km/h 8 km/h 77 % 0 mm
07:40 -16 °C -18 °C 34269.7 hPa NW 1.8 km/h 8 km/h 77 % 0 mm
07:45 -16 °C -18 °C 34269.7 hPa WNW 0.5 km/h 7.6 km/h 77 % 0 mm
07:47 -16.1 °C -18.1 °C 34269.7 hPa NW 1 km/h 7.6 km/h 77 % 0 mm
07:49 -16.1 °C -18.1 °C 34269.7 hPa NW 1 km/h 7.6 km/h 77 % 0 mm
07:53 -16.1 °C -18 °C 34269.7 hPa NW 2.1 km/h 9.3 km/h 78 % 0 mm
07:58 -15.9 °C -17.9 °C 34269.7 hPa NW 3.9 km/h 9.3 km/h 78 % 0 mm
08:03 -15.9 °C -17.9 °C 34269.7 hPa NW 4.2 km/h 11.1 km/h 78 % 0 mm
08:04 -15.9 °C -17.9 °C 34269.7 hPa NW 4.2 km/h 11.1 km/h 78 % 0 mm
08:09 -15.9 °C -17.7 °C 34269.7 hPa NW 2.9 km/h 11.1 km/h 79 % 0 mm
08:14 -15.9 °C -17.8 °C 34269.7 hPa NW 0.5 km/h 3.4 km/h 79 % 0 mm
08:16 -15.9 °C -17.8 °C 34269.7 hPa NW 0.3 km/h 3.4 km/h 79 % 0 mm
08:21 -16 °C -17.7 °C 34269.7 hPa NW 0.8 km/h 7.6 km/h 80 % 0 mm
08:22 -16 °C -17.7 °C 34269.7 hPa NW 0.8 km/h 7.6 km/h 80 % 0 mm
08:27 -16 °C -17.6 °C 34269.7 hPa NW 1 km/h 8 km/h 81 % 0 mm
08:29 -16 °C -17.6 °C 34303.6 hPa NW 1 km/h 8 km/h 81 % 0 mm
08:34 -16 °C -17.6 °C 34303.6 hPa NW 1 km/h 8 km/h 81 % 0 mm
08:35 -16 °C -17.6 °C 34303.6 hPa NW 1 km/h 8 km/h 81 % 0 mm
08:40 -16 °C -17.6 °C 34303.6 hPa Calm     82 % 0 mm
08:43 -15.9 °C -17.5 °C 34303.6 hPa Calm     82 % 0 mm
08:48 -15.8 °C -17.4 °C 34303.6 hPa WSW 1.3 km/h 7.6 km/h 82 % 0 mm
08:49 -15.8 °C -17.2 °C 34303.6 hPa WSW 1.3 km/h 7.6 km/h 83 % 0 mm
08:54 -15.7 °C -17.1 °C 34303.6 hPa SW 2.1 km/h 7.6 km/h 83 % 0 mm
08:56 -15.7 °C -17.1 °C 34303.6 hPa SW 1.3 km/h 6.4 km/h 83 % 0 mm
09:01 -15.4 °C -16.8 °C 34269.7 hPa South 2.1 km/h 7.6 km/h 84 % 0 mm
09:06 -15.3 °C -16.6 °C 34269.7 hPa SSE 3.9 km/h 7.6 km/h 84 % 0 mm
09:08 -15.2 °C -16.6 °C 34269.7 hPa SSE 4.2 km/h 7.6 km/h 84 % 0 mm
09:12 -15 °C -16.3 °C 34269.7 hPa South 2.3 km/h 7.6 km/h 85 % 0 mm
09:13 -14.9 °C -16.2 °C 34269.7 hPa SSW 2.6 km/h 9.8 km/h 85 % 0 mm
09:18 -14.6 °C -15.9 °C 34269.7 hPa SW 5.1 km/h 14.5 km/h 85 % 0 mm
09:21 -14.4 °C -15.7 °C 34269.7 hPa SW 7.2 km/h 14.5 km/h 85 % 0 mm
09:26 -13.8 °C -15.1 °C 34269.7 hPa SW 11.4 km/h 22 km/h 86 % 0 mm
09:31 -13.4 °C -14.5 °C 34269.7 hPa SW 11.9 km/h 22 km/h 87 % 0 mm
09:34 -13.2 °C -14.4 °C 34269.7 hPa SW 12.4 km/h 19.2 km/h 86 % 0 mm
09:37 -13.1 °C -14.2 °C 34269.7 hPa SW 13.2 km/h 26.7 km/h 87 % 0 mm
09:42 -12.8 °C -14 °C 34269.7 hPa SW 15 km/h 27.2 km/h 87 % 0 mm
09:47 -12.6 °C -13.8 °C 34269.7 hPa SW 13.2 km/h 27.2 km/h 87 % 0 mm
09:49 -12.6 °C -13.8 °C 34269.7 hPa SW 13.2 km/h 27.2 km/h 87 % 0 mm
09:54 -12.5 °C -13.7 °C 34269.7 hPa SW 11.6 km/h 27.2 km/h 86 % 0 mm
09:59 -12.3 °C -13.5 °C 34269.7 hPa SW 10.1 km/h 19.6 km/h 86 % 0 mm
10:02 -12.2 °C -13.6 °C 34269.7 hPa SW 9.8 km/h 19.6 km/h 85 % 0 mm
10:03 -12.2 °C -13.5 °C 34269.7 hPa SW 9.8 km/h 15.6 km/h 85 % 0 mm
10:07 -12 °C -13.3 °C 34269.7 hPa WSW 10.6 km/h 26.2 km/h 85 % 0 mm
10:09 -11.9 °C -13.4 °C 34269.7 hPa WSW 12.2 km/h 26.2 km/h 84 % 0 mm
10:14 -11.8 °C -13.2 °C 34337.4 hPa SW 14 km/h 20.3 km/h 84 % 0 mm
10:17 -11.7 °C -13.3 °C 34337.4 hPa SW 14.5 km/h 20.3 km/h 83 % 0 mm
10:22 -11.6 °C -13.2 °C 34337.4 hPa SW 13.7 km/h 20.3 km/h 82 % 0 mm
10:23 -11.6 °C -13.3 °C 34337.4 hPa SW 12.9 km/h 20.3 km/h 81 % 0 mm
10:28 -11.5 °C -13.3 °C 34303.6 hPa SW 13.2 km/h 22.5 km/h 80 % 0 mm
10:33 -11.4 °C -13.4 °C 34303.6 hPa WSW 14.5 km/h 22.5 km/h 78 % 0 mm
10:38 -11.3 °C -13.5 °C 34303.6 hPa SW 12.2 km/h 25.4 km/h 77 % 0 mm
10:40 -11.3 °C -13.5 °C 34303.6 hPa SW 12.7 km/h 25.4 km/h 77 % 0 mm
10:45 -11.3 °C -13.7 °C 34337.4 hPa SW 14 km/h 33.6 km/h 75 % 0 mm
10:46 -11.3 °C -13.7 °C 34337.4 hPa SW 15.8 km/h 33.6 km/h 75 % 0 mm
10:47 -11.3 °C -13.7 °C 34337.4 hPa SW 16.1 km/h 33.6 km/h 75 % 0 mm
10:52 -11.2 °C -13.7 °C 34337.4 hPa SW 16.1 km/h 33.6 km/h 74 % 0 mm
10:54 -11.2 °C -13.8 °C 34337.4 hPa SW 15 km/h 26.7 km/h 73 % 0 mm
13:14 -11.3 °C -15.1 °C 34235.8 hPa West 9.8 km/h 20.9 km/h 63 % 0 mm
13:16 -11.3 °C -15.1 °C 34235.8 hPa West 10.9 km/h 27.2 km/h 63 % 0 mm
13:19 -11.3 °C -15.1 °C 34235.8 hPa West 12.2 km/h 27.7 km/h 63 % 0 mm
13:22 -11.3 °C -15.1 °C 34235.8 hPa West 12.7 km/h 27.7 km/h 63 % 0 mm
13:25 -11.3 °C -15 °C 34235.8 hPa West 12.7 km/h 27.7 km/h 64 % 0 mm
13:28 -11.3 °C -15 °C 34235.8 hPa West 11.1 km/h 27.7 km/h 64 % 0 mm
13:31 -11.3 °C -15 °C 34235.8 hPa West 11.9 km/h 42.2 km/h 64 % 0 mm
13:36 -11.3 °C -15 °C 34235.8 hPa West 13.2 km/h 42.2 km/h 64 % 0 mm
13:37 -11.3 °C -15 °C 34235.8 hPa West 13.5 km/h 42.2 km/h 64 % 0 mm
13:42 -11.3 °C -14.9 °C 34235.8 hPa West 14.8 km/h 39.4 km/h 64 % 0 mm
13:43 -11.3 °C -14.9 °C 34235.8 hPa West 13.7 km/h 39.4 km/h 64 % 0 mm
13:45 -11.3 °C -14.9 °C 34235.8 hPa West 12.9 km/h 39.4 km/h 64 % 0 mm
13:50 -11.3 °C -14.9 °C 34235.8 hPa West 11.4 km/h 28.5 km/h 64 % 0 mm
13:54 -11.3 °C -14.9 °C 34235.8 hPa WNW 10.3 km/h 28.5 km/h 64 % 0 mm
13:59 -11.3 °C -14.9 °C 34235.8 hPa West 10.9 km/h 24.8 km/h 64 % 0 mm
14:00 -11.3 °C -14.8 °C 34235.8 hPa West 11.6 km/h 24.8 km/h 65 % 0 mm
14:03 -11.3 °C -14.8 °C 34235.8 hPa West 11.6 km/h 24.8 km/h 65 % 0 mm
14:07 -11.3 °C -14.8 °C 34235.8 hPa WSW 10.6 km/h 24.8 km/h 65 % 0 mm
14:12 -11.3 °C -14.8 °C 34235.8 hPa WSW 6.8 km/h 19.2 km/h 65 % 0 mm
14:13 -11.3 °C -14.8 °C 34235.8 hPa WSW 6.8 km/h 19.2 km/h 65 % 0 mm
14:59 -11.5 °C -14.9 °C 34235.8 hPa WSW 11.1 km/h 22.5 km/h 66 % 0 mm
15:04 -11.6 °C -14.9 °C 34235.8 hPa SW 8.9 km/h 15.6 km/h 66 % 0 mm
15:05 -11.6 °C -15 °C 34235.8 hPa SW 8.5 km/h 15.6 km/h 66 % 0 mm
15:08 -11.6 °C -15 °C 34235.8 hPa SW 8.5 km/h 15.6 km/h 66 % 0 mm
15:13 -11.7 °C -15.1 °C 34235.8 hPa SW 8.9 km/h 19.6 km/h 66 % 0 mm
15:14 -11.7 °C -15.1 °C 34198.6 hPa SW 8.9 km/h 19.6 km/h 66 % 0 mm
15:19 -11.7 °C -15.1 °C 34198.6 hPa WSW 7.7 km/h 14.5 km/h 66 % 0 mm
15:21 -11.7 °C -15 °C 34198.6 hPa WSW 6.4 km/h 12.7 km/h 67 % 0 mm
15:25 -11.7 °C -15 °C 34198.6 hPa SW 6 km/h 12.7 km/h 67 % 0 mm
15:27 -11.7 °C -15 °C 34198.6 hPa SW 5.5 km/h 10.3 km/h 67 % 0 mm
15:32 -11.8 °C -15.1 °C 34198.6 hPa SW 3.7 km/h 7.6 km/h 67 % 0 mm
15:35 -11.8 °C -15.1 °C 34198.6 hPa SW 3.4 km/h 12.2 km/h 67 % 0 mm
15:40 -11.8 °C -15.1 °C 34198.6 hPa WSW 5.5 km/h 17.9 km/h 67 % 0 mm
15:44 -11.9 °C -15.2 °C 34198.6 hPa WSW 6 km/h 17.9 km/h 67 % 0 mm
15:47 -11.9 °C -15.1 °C 34198.6 hPa WSW 5.1 km/h 16.9 km/h 68 % 0 mm
15:52 -11.9 °C -15.1 °C 34198.6 hPa WSW 4.7 km/h 15.6 km/h 68 % 0 mm
15:57 -12 °C -15.2 °C 34198.6 hPa WSW 6.8 km/h 15.6 km/h 68 % 0 mm
15:58 -12 °C -15.2 °C 34198.6 hPa WSW 7.6 km/h 15.6 km/h 68 % 0 mm
16:03 -12 °C -15.2 °C 34198.6 hPa WSW 7.2 km/h 16.3 km/h 68 % 0 mm
16:08 -12.1 °C -15.2 °C 34198.6 hPa SW 6.9 km/h 16.3 km/h 68 % 0 mm
16:10 -12.1 °C -15.2 °C 34198.6 hPa WSW 6.9 km/h 16.3 km/h 68 % 0 mm
16:15 -12.1 °C -15.1 °C 34198.6 hPa West 8 km/h 22.5 km/h 69 % 0 mm
16:19 -12.1 °C -15.1 °C 34198.6 hPa WSW 8.9 km/h 22.5 km/h 69 % 0 mm
16:23 -12.2 °C -15.2 °C 34198.6 hPa WSW 7.6 km/h 18.7 km/h 69 % 0 mm
16:27 -12.2 °C -15.2 °C 34198.6 hPa WSW 6.4 km/h 14 km/h 69 % 0 mm
16:28 -12.2 °C -15.2 °C 34198.6 hPa WSW 6.4 km/h 14 km/h 69 % 0 mm
16:33 -12.2 °C -15.2 °C 34198.6 hPa WSW 6 km/h 14 km/h 69 % 0 mm
16:37 -12.3 °C -15.2 °C 34198.6 hPa SW 5.1 km/h 8.9 km/h 70 % 0 mm
16:39 -12.3 °C -15.2 °C 34198.6 hPa SSW 5.1 km/h 8.9 km/h 70 % 0 mm
16:44 -12.4 °C -15.3 °C 34198.6 hPa SSW 3.4 km/h 8.9 km/h 70 % 0 mm
16:45 -12.4 °C -15.3 °C 34198.6 hPa SSW 3.4 km/h 8.9 km/h 70 % 0 mm
16:46 -12.4 °C -15.3 °C 34198.6 hPa SSW 2.9 km/h 8.9 km/h 70 % 0 mm
16:51 -12.4 °C -15.2 °C 34198.6 hPa SE 0.5 km/h 4.2 km/h 71 % 0 mm
16:52 -12.4 °C -15.2 °C 34198.6 hPa South 0.8 km/h 4.2 km/h 71 % 0 mm
16:57 -12.4 °C -15.2 °C 34198.6 hPa South 1.6 km/h 6.9 km/h 71 % 0 mm
16:59 -12.4 °C -15.2 °C 34198.6 hPa SSE 1.8 km/h 6.9 km/h 71 % 0 mm
17:03 -12.4 °C -15.2 °C 34198.6 hPa South 2.6 km/h 7.6 km/h 71 % 0 mm
17:04 -12.5 °C -15.3 °C 34198.6 hPa South 2.9 km/h 7.6 km/h 71 % 0 mm
17:09 -12.4 °C -15.2 °C 34198.6 hPa SSW 4.3 km/h 9.3 km/h 71 % 0 mm
17:10 -12.4 °C -15.2 °C 34198.6 hPa SSW 4.7 km/h 9.3 km/h 71 % 0 mm
17:15 -12.4 °C -15.1 °C 34198.6 hPa SSW 4.7 km/h 9.3 km/h 72 % 0 mm
17:16 -12.4 °C -15.1 °C 34198.6 hPa SW 4.2 km/h 9.3 km/h 72 % 0 mm
17:21 -12.5 °C -15.2 °C 34198.6 hPa SSW 1.6 km/h 9.3 km/h 72 % 0 mm
17:24 -12.5 °C -15.2 °C 34198.6 hPa South 0.8 km/h 7.6 km/h 72 % 0 mm
17:29 -12.6 °C -15.2 °C 34198.6 hPa South 1.8 km/h 7.6 km/h 72 % 0 mm
17:34 -12.6 °C -15.3 °C 34198.6 hPa SSE 2.1 km/h 6.4 km/h 72 % 0 mm
17:36 -12.6 °C -15.3 °C 34198.6 hPa SSE 1.3 km/h 6.4 km/h 72 % 0 mm
17:41 -12.6 °C -15.3 °C 34198.6 hPa SE 0.8 km/h 3.4 km/h 72 % 0 mm
17:45 -12.6 °C -15.3 °C 34198.6 hPa Calm     72 % 0 mm
17:49 -12.6 °C -15.3 °C 34198.6 hPa SSW 0.5 km/h 7.6 km/h 72 % 0 mm
17:51 -12.7 °C -15.3 °C 34198.6 hPa SSW 1.6 km/h 7.6 km/h 72 % 0 mm
17:56 -12.7 °C -15.3 °C 34198.6 hPa SSW 3.7 km/h 9.8 km/h 72 % 0 mm
17:59 -12.7 °C -15.3 °C 34198.6 hPa SSW 5.5 km/h 14 km/h 73 % 0 mm
18:00 -12.7 °C -15.3 °C 34198.6 hPa SSW 5.6 km/h 14 km/h 73 % 0 mm
20:35 -12.6 °C -15.1 °C 34130.9 hPa SSW 2.1 km/h 6.4 km/h 74 % 0 mm
20:36 -12.6 °C -15.1 °C 34130.9 hPa SSW 2.1 km/h 6.4 km/h 74 % 0 mm
20:39 -12.6 °C -15.1 °C 34130.9 hPa SW 1.6 km/h 5.6 km/h 74 % 0 mm
20:41 -12.6 °C -15.1 °C 34130.9 hPa SW 0.8 km/h 5.6 km/h 74 % 0 mm
20:46 -12.7 °C -15.2 °C 34164.7 hPa SW 0.3 km/h 5.1 km/h 74 % 0 mm
20:47 -12.7 °C -15.2 °C 34164.7 hPa SW 0.3 km/h 2.9 km/h 74 % 0 mm
20:49 -12.7 °C -15.2 °C 34164.7 hPa Calm     74 % 0 mm
20:54 -12.8 °C -15.2 °C 34164.7 hPa Calm   2.3 km/h 74 % 0 mm
20:59 -12.9 °C -15.2 °C 34164.7 hPa Calm   3.4 km/h 75 % 0 mm
21:00 -12.9 °C -15.2 °C 34164.7 hPa Calm   3.4 km/h 75 % 0 mm
21:05 -12.9 °C -15.2 °C 34164.7 hPa West 0.8 km/h 6.9 km/h 75 % 0 mm
21:08 -12.9 °C -15.3 °C 34164.7 hPa WSW 1.3 km/h 6.9 km/h 75 % 0 mm
21:10 -12.9 °C -15.3 °C 34164.7 hPa WSW 2.3 km/h 6.9 km/h 75 % 0 mm
21:14 -12.9 °C -15.3 °C 34130.9 hPa WSW 2.9 km/h 6.9 km/h 75 % 0 mm
21:19 -12.9 °C -15.3 °C 34130.9 hPa WSW 1.3 km/h 6.4 km/h 75 % 0 mm
21:23 -13 °C -15.2 °C 34130.9 hPa West 1 km/h 6.9 km/h 76 % 0 mm
21:26 -13 °C -15.2 °C 34130.9 hPa West 1 km/h 6.9 km/h 76 % 0 mm
21:30 -13 °C -15.2 °C 34164.7 hPa WSW 1.6 km/h 6.9 km/h 76 % 0 mm
21:32 -13 °C -15.2 °C 34164.7 hPa WSW 1 km/h 6.4 km/h 76 % 0 mm
21:35 -13 °C -15.2 °C 34164.7 hPa SW 0.8 km/h 6.4 km/h 76 % 0 mm
21:37 -13 °C -15.2 °C 34164.7 hPa SSW 1 km/h 6.4 km/h 76 % 0 mm
21:42 -13.1 °C -15.3 °C 34164.7 hPa SW 2.6 km/h 8.9 km/h 76 % 0 mm
21:43 -13.1 °C -15.3 °C 34164.7 hPa SW 2.6 km/h 8.9 km/h 76 % 0 mm
21:48 -13.1 °C -15.3 °C 34164.7 hPa WSW 2.9 km/h 8.9 km/h 76 % 0 mm
21:49 -13.1 °C -15.3 °C 34164.7 hPa WSW 2.6 km/h 8.9 km/h 76 % 0 mm
21:54 -13.2 °C -15.4 °C 34164.7 hPa WSW 0.3 km/h 5.1 km/h 76 % 0 mm
21:59 -13.2 °C -15.4 °C 34164.7 hPa SW 0.8 km/h 6.9 km/h 76 % 0 mm
22:04 -13.2 °C -15.3 °C 34164.7 hPa SW 0.8 km/h 6.9 km/h 77 % 0 mm
22:05 -13.2 °C -15.3 °C 34164.7 hPa SW 0.8 km/h 6.9 km/h 77 % 0 mm
22:08 -13.3 °C -15.4 °C 34164.7 hPa SW 0.3 km/h 2.9 km/h 77 % 0 mm
22:13 -13.3 °C -15.4 °C 34164.7 hPa Calm     77 % 0 mm
22:18 -13.3 °C -15.4 °C 34164.7 hPa South 1 km/h 6.9 km/h 77 % 0 mm
22:23 -13.3 °C -15.4 °C 34164.7 hPa South 1.3 km/h 6.9 km/h 77 % 0 mm
22:24 -13.4 °C -15.4 °C 34164.7 hPa South 1.3 km/h 6.9 km/h 78 % 0 mm
22:29 -13.4 °C -15.4 °C 34130.9 hPa WNW 0.3 km/h 5.1 km/h 78 % 0 mm
22:34 -13.5 °C -15.5 °C 34130.9 hPa Calm     78 % 0 mm
22:38 -13.5 °C -15.5 °C 34130.9 hPa Calm     78 % 0 mm
22:39 -13.5 °C -15.5 °C 34130.9 hPa Calm   4.2 km/h 78 % 0 mm
22:44 -13.6 °C -15.4 °C 34130.9 hPa WNW 0.5 km/h 5.1 km/h 79 % 0 mm
22:47 -13.6 °C -15.5 °C 34130.9 hPa WNW 0.5 km/h 5.1 km/h 79 % 0 mm
22:52 -13.6 °C -15.5 °C 34130.9 hPa Calm     79 % 0 mm
22:57 -13.7 °C -15.6 °C 34130.9 hPa Calm     79 % 0 mm
22:59 -13.7 °C -15.6 °C 34130.9 hPa WNW 0.3 km/h 5.1 km/h 79 % 0 mm
23:03 -13.8 °C -15.7 °C 34130.9 hPa WNW 1 km/h 5.1 km/h 79 % 0 mm
23:04 -13.8 °C -15.7 °C 34130.9 hPa WNW 1 km/h 5.1 km/h 79 % 0 mm
23:09 -13.8 °C -15.7 °C 34130.9 hPa West 1.6 km/h 5.1 km/h 79 % 0 mm
23:14 -13.9 °C -15.7 °C 34130.9 hPa West 1.3 km/h 5.1 km/h 80 % 0 mm
23:16 -14 °C -15.8 °C 34130.9 hPa WSW 1 km/h 5.1 km/h 80 % 0 mm
23:21 -14.1 °C -15.9 °C 34130.9 hPa Calm     80 % 0 mm
23:22 -14.1 °C -15.9 °C 34130.9 hPa Calm     80 % 0 mm
23:26 -14.2 °C -15.9 °C 34130.9 hPa Calm     80 % 0 mm
23:30 -14.2 °C -16 °C 34130.9 hPa SW 0.8 km/h 6.4 km/h 80 % 0 mm
23:33 -14.4 °C -16.2 °C 34130.9 hPa SW 0.8 km/h 6.4 km/h 80 % 0 mm
23:36 -14.4 °C -16.2 °C 34130.9 hPa SW 0.8 km/h 6.4 km/h 80 % 0 mm
23:41 -14.6 °C -16.2 °C 34130.9 hPa WSW 0.5 km/h 5.1 km/h 81 % 0 mm
23:42 -14.6 °C -16.2 °C 34130.9 hPa WSW 0.5 km/h 5.1 km/h 81 % 0 mm
23:47 -14.7 °C -16.4 °C 34130.9 hPa WSW 0.5 km/h 5.1 km/h 81 % 0 mm
23:52 -14.8 °C -16.4 °C 34130.9 hPa Calm     81 % 0 mm
23:57 -14.9 °C -16.6 °C 34130.9 hPa Calm     81 % 0 mm
Vremenska postaja Senovo
Podatki zbrani iz Weather Underground - 3 mb

Script developed by  Jim McMurry - jmcmurry@mwt.net Adapted for the template by  Wim van der Kuil - Leuven-Template.eu

Vremenski podatki so objavljeni na:

European Weather Network

WeatherCloud

Weather Underground

AWEKAS

HAMweather, WeatherForYou, PWS Weather

MapView

Geostik

Slovenia weather network

Oprema, ki se uporablja:

Vremenski program
Cumulus

Vremenski server
Asus

Cumulus

Asus